Pocono Lake, Pennsylvania
Current Conditions -  °F | °C
As of 7:20 PM on Wednesday 26 Nov 2014 (Local Time) from KMPO Reporting Station
Light Snow Light Snow  
Wind Chill: -7°   Ceiling: 1100
Heat Index: -1°   Visibility: 0.75mi
Dew Point: -3°   Wind: 14mph
Humidity: 85%   Direction: 340°NNW
Pressure: 29.83"   Gusts: 23mph
Location:  41.09°N, 75.58°W
Report Text: KMPO 270020Z AUTO 34012G20KT 3/4SM -SN BR VV011 M01/M03 A2983 RMK AO2 P0001 T10111033
Loading
Personal Weather Stations






























Interactive Weather Map New forecast layout! Learn more

10-Day Weather Forecast

Advertisements
Track Severe Weather on mobile